createdAt,value
2022-08-12T00:02:03.150Z,87.54
2022-08-12T00:04:53.313Z,87.57
2022-08-12T00:07:39.855Z,87.63
2022-08-12T00:10:26.690Z,87.90
2022-08-12T00:13:15.170Z,87.73
2022-08-12T00:16:04.730Z,87.64
2022-08-12T00:18:50.948Z,87.87
2022-08-12T00:21:39.376Z,88.01
2022-08-12T00:24:28.290Z,88.03
2022-08-12T00:27:16.177Z,88.16
2022-08-12T00:30:02.960Z,88.15
2022-08-12T00:32:54.797Z,87.98
2022-08-12T00:35:44.268Z,87.50
2022-08-12T00:38:31.059Z,87.52
2022-08-12T00:41:18.752Z,87.39
2022-08-12T00:43:48.593Z,87.33
2022-08-12T00:46:31.384Z,87.49
2022-08-12T00:49:01.797Z,87.38
2022-08-12T00:51:49.220Z,87.65
2022-08-12T00:54:17.371Z,87.60
2022-08-12T00:56:51.075Z,87.73
2022-08-12T00:59:18.560Z,88.29
2022-08-12T01:02:10.503Z,87.51
2022-08-12T01:04:57.801Z,87.41
2022-08-12T01:07:46.511Z,87.31
2022-08-12T01:10:33.489Z,87.19
2022-08-12T01:13:07.526Z,87.06
2022-08-12T01:15:50.495Z,87.39
2022-08-12T01:18:25.163Z,87.06
2022-08-12T01:20:52.571Z,87.43
2022-08-12T01:23:42.170Z,87.32
2022-08-12T01:26:16.847Z,87.22
2022-08-12T01:28:48.510Z,86.97
2022-08-12T01:31:20.112Z,87.03
2022-08-12T01:34:04.321Z,87.19
2022-08-12T01:36:46.963Z,87.30
2022-08-12T01:39:18.378Z,87.17
2022-08-12T01:41:53.839Z,86.98
2022-08-12T01:44:28.421Z,87.14
2022-08-12T01:47:43.144Z,86.78
2022-08-12T01:50:37.012Z,86.68
2022-08-12T01:53:12.045Z,86.34
2022-08-12T01:55:47.699Z,86.43
2022-08-12T01:58:22.540Z,86.44
2022-08-12T02:01:07.009Z,86.59
2022-08-12T02:03:53.157Z,86.48
2022-08-12T02:07:07.560Z,86.48
2022-08-12T02:10:51.398Z,87.20
2022-08-12T02:13:33.145Z,88.09
2022-08-12T02:16:51.157Z,88.39
2022-08-12T02:19:58.003Z,88.72
2022-08-12T02:22:38.971Z,88.79
2022-08-12T02:25:25.804Z,88.82
2022-08-12T02:27:56.276Z,88.88
2022-08-12T02:30:41.180Z,88.71
2022-08-12T02:33:12.037Z,88.84
2022-08-12T02:35:40.226Z,89.07
2022-08-12T02:38:11.496Z,88.94
2022-08-12T02:40:45.537Z,88.58
2022-08-12T02:43:50.528Z,88.38
2022-08-12T02:46:32.471Z,88.34
2022-08-12T02:49:32.731Z,88.39
2022-08-12T02:52:01.111Z,88.27
2022-08-12T02:54:28.419Z,88.62
2022-08-12T02:56:55.666Z,88.21
2022-08-12T02:59:27.280Z,88.18
2022-08-12T03:02:00.224Z,88.10
2022-08-12T03:04:46.738Z,87.81
2022-08-12T03:07:28.821Z,87.79
2022-08-12T03:10:17.906Z,87.68
2022-08-12T03:12:55.259Z,87.57
2022-08-12T03:15:24.815Z,87.48
2022-08-12T03:18:26.276Z,87.53
2022-08-12T03:20:49.225Z,87.62
2022-08-12T03:23:29.053Z,87.44
2022-08-12T03:26:01.945Z,87.44
2022-08-12T03:28:51.249Z,87.73
2022-08-12T03:31:24.656Z,87.41
2022-08-12T03:34:01.642Z,87.47
2022-08-12T03:36:36.333Z,87.33
2022-08-12T03:39:45.855Z,87.31
2022-08-12T03:42:41.550Z,87.52
2022-08-12T03:45:51.984Z,87.78
2022-08-12T03:48:40.049Z,87.54
2022-08-12T03:51:27.890Z,87.41
2022-08-12T03:54:15.503Z,87.24
2022-08-12T03:57:01.231Z,87.39
2022-08-12T03:59:47.076Z,86.95
2022-08-12T04:02:15.791Z,86.92
2022-08-12T04:04:45.779Z,86.85
2022-08-12T04:07:16.385Z,87.01
2022-08-12T04:09:47.801Z,87.00
2022-08-12T04:12:34.456Z,86.75
2022-08-12T04:15:03.917Z,86.60
2022-08-12T04:17:32.306Z,86.56
2022-08-12T04:20:00.446Z,86.33
2022-08-12T04:22:29.908Z,86.46
2022-08-12T04:25:01.465Z,86.45
2022-08-12T04:27:31.920Z,86.35
2022-08-12T04:30:30.064Z,86.34
2022-08-12T04:32:52.467Z,86.21
2022-08-12T04:35:21.670Z,86.11
2022-08-12T04:37:58.647Z,85.82
2022-08-12T04:40:33.293Z,86.28
2022-08-12T04:43:01.974Z,86.60
2022-08-12T04:45:34.865Z,87.41
2022-08-12T04:48:02.815Z,87.06
2022-08-12T04:50:35.711Z,86.98
2022-08-12T04:53:08.398Z,87.17
2022-08-12T04:55:39.334Z,86.96
2022-08-12T04:58:08.916Z,87.18
2022-08-12T05:00:38.330Z,87.32
2022-08-12T05:03:07.627Z,87.15
2022-08-12T05:05:38.016Z,87.18
2022-08-12T05:08:11.767Z,87.50
2022-08-12T05:10:39.347Z,87.26
2022-08-12T05:13:14.593Z,86.83
2022-08-12T05:16:04.052Z,86.90
2022-08-12T05:18:39.276Z,86.75
2022-08-12T05:21:09.215Z,86.79
2022-08-12T05:23:38.299Z,86.41
2022-08-12T05:26:06.369Z,86.40
2022-08-12T05:28:34.642Z,86.23
2022-08-12T05:31:02.845Z,86.79
2022-08-12T05:33:38.055Z,86.63
2022-08-12T05:36:15.073Z,86.56
2022-08-12T05:38:56.733Z,86.14
2022-08-12T05:41:28.299Z,86.21
2022-08-12T05:44:05.873Z,86.26
2022-08-12T05:46:35.423Z,86.10
2022-08-12T05:49:04.165Z,85.92
2022-08-12T05:51:41.067Z,85.35
2022-08-12T05:54:11.624Z,85.47
2022-08-12T05:56:41.408Z,84.81
2022-08-12T05:59:12.697Z,84.82
2022-08-12T06:02:09.873Z,84.62
2022-08-12T06:04:31.327Z,84.72
2022-08-12T06:06:58.937Z,84.45
2022-08-12T06:09:30.409Z,84.21
2022-08-12T06:12:05.124Z,84.03
2022-08-12T06:14:39.382Z,84.29
2022-08-12T06:17:09.197Z,84.17
2022-08-12T06:20:27.002Z,84.48
2022-08-12T06:22:35.250Z,84.18
2022-08-12T06:25:03.053Z,83.94
2022-08-12T06:27:30.371Z,83.84
2022-08-12T06:30:09.310Z,83.13
2022-08-12T06:32:58.459Z,83.14
2022-08-12T06:35:47.748Z,82.81
2022-08-12T06:38:25.363Z,82.12
2022-08-12T06:41:19.553Z,82.02
2022-08-12T06:44:06.118Z,81.83
2022-08-12T06:46:38.960Z,81.57
2022-08-12T06:49:07.027Z,81.46
2022-08-12T06:51:34.571Z,80.04
2022-08-12T06:54:02.725Z,80.17
2022-08-12T06:57:00.151Z,79.50
2022-08-12T06:59:21.488Z,79.29
2022-08-12T07:01:50.759Z,79.18
2022-08-12T07:04:38.441Z,77.99
2022-08-12T07:07:10.493Z,77.59
2022-08-12T07:09:59.982Z,76.95
2022-08-12T07:12:27.830Z,77.48
2022-08-12T07:15:01.779Z,76.54
2022-08-12T07:17:36.128Z,76.85
2022-08-12T07:20:20.151Z,76.45
2022-08-12T07:22:59.819Z,76.03
2022-08-12T07:25:40.724Z,74.96
2022-08-12T07:28:17.355Z,74.19
2022-08-12T07:30:50.941Z,73.24
2022-08-12T07:33:25.197Z,73.17
2022-08-12T07:35:54.090Z,72.99
2022-08-12T07:38:29.029Z,73.15
2022-08-12T07:41:15.624Z,72.62
2022-08-12T07:44:03.910Z,72.17
2022-08-12T07:46:43.363Z,72.35
2022-08-12T07:49:15.634Z,71.35
2022-08-12T07:51:45.281Z,70.76
2022-08-12T07:54:13.874Z,69.97
2022-08-12T07:56:42.795Z,68.92
2022-08-12T07:59:11.549Z,68.38
2022-08-12T08:01:40.730Z,66.96
2022-08-12T08:04:27.441Z,67.20
2022-08-12T08:06:55.003Z,66.67
2022-08-12T08:09:24.331Z,66.27
2022-08-12T08:12:19.142Z,64.52
2022-08-12T08:14:50.210Z,64.16
2022-08-12T08:17:17.837Z,64.29
2022-08-12T08:19:48.717Z,64.10
2022-08-12T08:22:42.589Z,63.95
2022-08-12T08:25:20.373Z,62.81
2022-08-12T08:28:06.298Z,63.32
2022-08-12T08:30:34.891Z,62.86
2022-08-12T08:33:02.256Z,61.92
2022-08-12T08:35:35.777Z,62.06
2022-08-12T08:38:31.932Z,60.66
2022-08-12T08:42:19.375Z,60.65
2022-08-12T08:44:12.627Z,60.59
2022-08-12T08:46:43.148Z,60.53
2022-08-12T08:49:11.423Z,58.58
2022-08-12T08:51:40.134Z,58.31
2022-08-12T08:54:08.921Z,57.76
2022-08-12T08:56:46.432Z,57.17
2022-08-12T08:59:14.523Z,55.88
2022-08-12T09:01:44.216Z,53.69
2022-08-12T09:05:09.888Z,52.23
2022-08-12T09:07:16.921Z,51.19
2022-08-12T09:10:02.208Z,49.63
2022-08-12T09:12:54.936Z,49.29
2022-08-12T09:15:35.716Z,48.94
2022-08-12T09:18:08.866Z,48.76
2022-08-12T09:20:39.204Z,46.28
2022-08-12T09:24:00.369Z,36.31
2022-08-12T09:28:52.820Z,22.17
2022-08-12T09:32:03.473Z,18.09
2022-08-12T09:34:27.664Z,22.21
2022-08-12T09:37:02.414Z,25.77
2022-08-12T09:40:06.397Z,24.78
2022-08-12T09:43:11.778Z,16.76
2022-08-12T09:46:06.524Z,17.23
2022-08-12T09:48:35.093Z,18.88
2022-08-12T09:51:16.598Z,22.34
2022-08-12T09:54:05.672Z,24.80
2022-08-12T09:56:58.453Z,17.89
2022-08-12T10:00:16.569Z,22.92
2022-08-12T10:02:44.405Z,26.79
2022-08-12T10:05:13.450Z,27.63
2022-08-12T10:07:41.720Z,22.27
2022-08-12T10:10:23.858Z,17.87
2022-08-12T10:13:36.312Z,16.86
2022-08-12T10:16:25.589Z,16.93
2022-08-12T10:19:01.849Z,13.53
2022-08-12T10:21:37.783Z,14.26
2022-08-12T10:24:09.053Z,13.59
2022-08-12T10:26:58.659Z,14.28
2022-08-12T10:30:37.386Z,11.40
2022-08-12T10:32:44.312Z,14.40
2022-08-12T10:35:16.586Z,11.59
2022-08-12T10:38:35.854Z,9.85
2022-08-12T10:40:37.839Z,12.53
2022-08-12T10:43:23.982Z,11.68
2022-08-12T10:45:53.322Z,10.29
2022-08-12T10:48:26.781Z,8.74
2022-08-12T10:52:04.526Z,8.89
2022-08-12T10:53:54.327Z,8.30
2022-08-12T10:56:34.910Z,7.67
2022-08-12T10:59:10.598Z,7.51
2022-08-12T11:04:17.097Z,8.31
2022-08-12T11:04:39.403Z,11.35
2022-08-12T11:08:37.114Z,13.83
2022-08-12T11:10:01.672Z,15.99
2022-08-12T11:12:56.759Z,17.04
2022-08-12T11:15:32.674Z,19.33
2022-08-12T11:18:12.287Z,21.49
2022-08-12T11:20:48.243Z,23.45
2022-08-12T11:23:25.036Z,24.46
2022-08-12T11:26:06.979Z,25.55
2022-08-12T11:28:37.461Z,26.64
2022-08-12T11:31:11.861Z,27.24
2022-08-12T11:34:04.286Z,28.23
2022-08-12T11:36:29.290Z,29.19
2022-08-12T11:38:58.740Z,30.68
2022-08-12T11:41:34.738Z,30.22
2022-08-12T11:44:35.200Z,30.55
2022-08-12T11:46:54.773Z,31.12
2022-08-12T11:49:31.263Z,31.33
2022-08-12T11:52:04.133Z,30.80
2022-08-12T11:54:32.079Z,30.81
2022-08-12T11:57:03.005Z,31.52
2022-08-12T12:02:36.875Z,32.17
2022-08-12T12:05:05.329Z,32.41
2022-08-12T12:08:36.544Z,32.88
2022-08-12T12:10:20.838Z,31.30
2022-08-12T12:12:49.951Z,31.33
2022-08-12T12:15:24.959Z,32.32
2022-08-12T12:18:05.028Z,32.80
2022-08-12T12:20:34.288Z,32.93
2022-08-12T12:23:01.474Z,33.30
2022-08-12T12:26:06.527Z,33.36
2022-08-12T12:28:37.092Z,33.54
2022-08-12T12:31:15.220Z,33.01
2022-08-12T12:33:57.534Z,33.09
2022-08-12T12:36:30.307Z,32.70
2022-08-12T12:39:00.256Z,33.21
2022-08-12T12:42:42.126Z,34.01
2022-08-12T12:44:38.409Z,34.28
2022-08-12T12:47:04.916Z,34.12
2022-08-12T12:49:53.550Z,33.87
2022-08-12T12:52:21.469Z,34.44
2022-08-12T12:54:55.579Z,34.28
2022-08-12T12:57:58.885Z,33.96
2022-08-12T13:00:16.625Z,33.69
2022-08-12T13:02:58.170Z,34.46
2022-08-12T13:05:29.716Z,34.79
2022-08-12T13:08:35.669Z,34.83
2022-08-12T13:11:10.735Z,33.68
2022-08-12T13:14:08.703Z,33.65
2022-08-12T13:16:30.383Z,33.78
2022-08-12T13:18:58.350Z,33.47
2022-08-12T13:21:36.802Z,33.80
2022-08-12T13:24:10.862Z,32.81
2022-08-12T13:26:40.430Z,33.42
2022-08-12T13:29:10.292Z,33.36
2022-08-12T13:32:17.604Z,33.19
2022-08-12T13:34:34.259Z,33.84
2022-08-12T13:37:09.746Z,33.93
2022-08-12T13:39:39.249Z,33.67
2022-08-12T13:42:14.753Z,33.81
2022-08-12T13:44:43.042Z,33.71
2022-08-12T13:47:19.588Z,33.95
2022-08-12T13:49:55.108Z,33.76
2022-08-12T13:52:24.414Z,33.69
2022-08-12T13:54:55.880Z,32.87
2022-08-12T13:57:26.579Z,33.03
2022-08-12T13:59:55.127Z,32.80
2022-08-12T14:02:23.558Z,32.17
2022-08-12T14:04:56.431Z,32.27
2022-08-12T14:07:26.033Z,32.84
2022-08-12T14:10:16.257Z,33.01
2022-08-12T14:12:54.356Z,33.12
2022-08-12T14:15:36.422Z,33.25
2022-08-12T14:18:13.143Z,34.10
2022-08-12T14:20:43.990Z,33.28
2022-08-12T14:24:01.080Z,33.18
2022-08-12T14:26:11.839Z,33.22
2022-08-12T14:28:45.399Z,33.19
2022-08-12T14:31:31.458Z,33.24
2022-08-12T14:34:00.251Z,33.33
2022-08-12T14:36:32.835Z,33.71
2022-08-12T14:39:04.806Z,34.19
2022-08-12T14:41:37.288Z,34.49
2022-08-12T14:44:59.741Z,34.61
2022-08-12T14:47:07.622Z,35.16
2022-08-12T14:50:37.189Z,34.30
2022-08-12T14:52:56.577Z,33.32
2022-08-12T14:58:02.486Z,33.73
2022-08-12T15:00:52.337Z,34.09
2022-08-12T15:03:52.455Z,34.24
2022-08-12T15:06:43.656Z,35.33
2022-08-12T15:09:08.342Z,35.02
2022-08-12T15:11:54.344Z,34.75
2022-08-12T15:14:27.434Z,35.04
2022-08-12T15:16:54.944Z,34.88
2022-08-12T15:20:31.258Z,35.46
2022-08-12T15:22:37.064Z,35.42
2022-08-12T15:24:57.123Z,35.75
2022-08-12T15:27:31.606Z,35.60
2022-08-12T15:30:11.991Z,35.31
2022-08-12T15:32:40.552Z,35.43
2022-08-12T15:35:11.990Z,35.89
2022-08-12T15:38:08.774Z,35.33
2022-08-12T15:40:30.027Z,35.60
2022-08-12T15:42:59.921Z,35.67
2022-08-12T15:45:32.075Z,36.04
2022-08-12T15:48:16.451Z,36.62
2022-08-12T15:50:53.150Z,36.28
2022-08-12T15:53:42.628Z,36.09
2022-08-12T15:56:13.498Z,36.60
2022-08-12T15:58:42.107Z,36.51
2022-08-12T16:01:11.810Z,36.62
2022-08-12T16:03:45.927Z,36.83
2022-08-12T16:06:52.055Z,37.14
2022-08-12T16:09:21.423Z,36.93
2022-08-12T16:11:49.024Z,36.52
2022-08-12T16:14:16.813Z,36.83
2022-08-12T16:16:43.982Z,37.09
2022-08-12T16:20:03.565Z,37.36
2022-08-12T16:22:07.230Z,37.27
2022-08-12T16:24:43.754Z,36.82
2022-08-12T16:27:11.610Z,37.29
2022-08-12T16:29:53.240Z,37.34
2022-08-12T16:32:23.947Z,37.39
2022-08-12T16:34:55.641Z,37.49
2022-08-12T16:37:32.846Z,37.82
2022-08-12T16:40:13.118Z,37.83
2022-08-12T16:42:54.118Z,38.03
2022-08-12T16:46:04.968Z,38.37
2022-08-12T16:48:34.910Z,38.50
2022-08-12T16:51:10.229Z,38.50
2022-08-12T16:53:44.776Z,38.87
2022-08-12T16:56:16.851Z,38.92
2022-08-12T16:58:47.220Z,39.28
2022-08-12T17:01:15.815Z,39.56
2022-08-12T17:03:59.721Z,39.76
2022-08-12T17:06:28.115Z,40.11
2022-08-12T17:09:08.413Z,39.94
2022-08-12T17:11:44.408Z,40.13
2022-08-12T17:14:11.782Z,40.54
2022-08-12T17:16:40.934Z,40.66
2022-08-12T17:19:09.566Z,40.99
2022-08-12T17:21:41.744Z,41.82
2022-08-12T17:24:21.365Z,42.08
2022-08-12T17:26:53.828Z,42.73
2022-08-12T17:29:31.873Z,43.07
2022-08-12T17:32:11.236Z,43.67
2022-08-12T17:34:58.236Z,43.69
2022-08-12T17:37:27.936Z,44.44
2022-08-12T17:40:15.210Z,44.39
2022-08-12T17:42:47.742Z,45.08
2022-08-12T17:45:19.429Z,45.60
2022-08-12T17:48:00.966Z,46.09
2022-08-12T17:50:32.513Z,46.97
2022-08-12T17:53:02.917Z,47.98
2022-08-12T17:55:44.253Z,48.73
2022-08-12T17:58:18.641Z,49.95
2022-08-12T18:00:51.354Z,50.37
2022-08-12T18:04:05.498Z,51.16
2022-08-12T18:06:08.460Z,51.97
2022-08-12T18:08:53.490Z,52.45
2022-08-12T18:12:04.562Z,52.92
2022-08-12T18:14:30.244Z,53.73
2022-08-12T18:17:02.397Z,54.62
2022-08-12T18:20:03.842Z,55.64
2022-08-12T18:22:22.176Z,55.80
2022-08-12T18:25:05.774Z,56.56
2022-08-12T18:27:44.667Z,56.89
2022-08-12T18:30:29.040Z,57.21
2022-08-12T18:33:05.308Z,57.57
2022-08-12T18:35:47.215Z,58.04
2022-08-12T18:38:24.682Z,58.14
2022-08-12T18:41:20.963Z,58.83
2022-08-12T18:44:08.149Z,59.39
2022-08-12T18:46:55.734Z,59.77
2022-08-12T18:49:34.950Z,59.97
2022-08-12T18:52:08.655Z,60.23
2022-08-12T18:54:53.268Z,60.19
2022-08-12T18:58:05.828Z,60.03
2022-08-12T19:00:21.400Z,60.39
2022-08-12T19:02:53.129Z,60.66
2022-08-12T19:05:24.473Z,60.92
2022-08-12T19:08:13.019Z,60.82
2022-08-12T19:10:50.180Z,61.52
2022-08-12T19:13:38.930Z,61.76
2022-08-12T19:16:12.580Z,61.99
2022-08-12T19:18:44.682Z,62.35
2022-08-12T19:21:16.818Z,62.42
2022-08-12T19:24:07.989Z,62.70
2022-08-12T19:26:36.666Z,62.96
2022-08-12T19:29:08.280Z,62.73
2022-08-12T19:31:55.542Z,62.84
2022-08-12T19:36:06.597Z,62.33
2022-08-12T19:37:38.504Z,62.60
2022-08-12T19:40:32.877Z,63.14
2022-08-12T19:43:19.909Z,63.01
2022-08-12T19:45:51.588Z,62.98
2022-08-12T19:48:22.925Z,63.33
2022-08-12T19:50:57.551Z,63.37
2022-08-12T19:53:27.585Z,63.42
2022-08-12T19:55:57.435Z,63.96
2022-08-12T19:58:26.758Z,64.09
2022-08-12T20:00:55.369Z,64.39
2022-08-12T20:03:40.566Z,64.89
2022-08-12T20:06:21.703Z,65.52
2022-08-12T20:08:56.643Z,66.04
2022-08-12T20:12:09.853Z,66.40
2022-08-12T20:14:20.951Z,66.36
2022-08-12T20:16:57.379Z,66.53
2022-08-12T20:20:01.157Z,66.83
2022-08-12T20:22:29.737Z,66.79
2022-08-12T20:25:07.368Z,67.47
2022-08-12T20:28:03.659Z,68.06
2022-08-12T20:30:38.173Z,68.52
2022-08-12T20:33:17.484Z,68.82
2022-08-12T20:36:13.506Z,69.87
2022-08-12T20:38:39.791Z,70.41
2022-08-12T20:41:17.608Z,71.03
2022-08-12T20:43:52.564Z,71.44
2022-08-12T20:46:33.752Z,72.11
2022-08-12T20:49:14.604Z,72.38
2022-08-12T20:51:55.637Z,72.98
2022-08-12T20:54:32.553Z,73.16
2022-08-12T20:57:07.419Z,73.57
2022-08-12T20:59:47.708Z,73.50
2022-08-12T21:02:16.420Z,73.97
2022-08-12T21:05:10.913Z,74.40
2022-08-12T21:07:51.613Z,74.50
2022-08-12T21:10:20.796Z,74.71
2022-08-12T21:12:50.875Z,74.54
2022-08-12T21:15:30.136Z,74.81
2022-08-12T21:18:09.175Z,74.73
2022-08-12T21:20:54.597Z,75.20
2022-08-12T21:23:23.345Z,75.06
2022-08-12T21:25:56.347Z,75.51
2022-08-12T21:28:27.479Z,74.88
2022-08-12T21:32:38.077Z,75.48
2022-08-12T21:34:08.218Z,75.46
2022-08-12T21:36:48.227Z,75.51
2022-08-12T21:39:22.206Z,75.69
2022-08-12T21:41:55.063Z,75.84
2022-08-12T21:45:43.866Z,75.67
2022-08-12T21:47:20.423Z,75.54
2022-08-12T21:50:04.368Z,75.70
2022-08-12T21:52:40.382Z,76.37
2022-08-12T21:55:18.179Z,76.29
2022-08-12T21:57:54.723Z,76.86
2022-08-12T22:00:35.000Z,76.79
2022-08-12T22:04:04.170Z,77.22
2022-08-12T22:06:26.340Z,77.51
2022-08-12T22:09:07.688Z,78.15
2022-08-12T22:11:41.578Z,78.01
2022-08-12T22:14:21.933Z,78.71
2022-08-12T22:16:55.051Z,79.74
2022-08-12T22:19:23.451Z,80.30
2022-08-12T22:21:54.782Z,80.16
2022-08-12T22:24:26.750Z,81.12
2022-08-12T22:27:08.009Z,81.31
2022-08-12T22:30:07.156Z,81.72
2022-08-12T22:32:38.884Z,82.10
2022-08-12T22:35:29.013Z,82.28
2022-08-12T22:38:07.416Z,82.40
2022-08-12T22:40:40.098Z,82.82
2022-08-12T22:43:29.444Z,82.78
2022-08-12T22:46:15.071Z,82.83
2022-08-12T22:48:50.579Z,82.99
2022-08-12T22:51:24.027Z,82.98
2022-08-12T22:53:54.991Z,83.03
2022-08-12T22:56:30.757Z,83.11
2022-08-12T22:59:02.845Z,83.41
2022-08-12T23:01:52.343Z,83.48
2022-08-12T23:04:28.615Z,83.01
2022-08-12T23:07:05.202Z,82.98
2022-08-12T23:09:48.326Z,82.79
2022-08-12T23:12:40.784Z,82.78
2022-08-12T23:15:09.310Z,82.91
2022-08-12T23:17:41.078Z,83.36
2022-08-12T23:20:10.996Z,83.29
2022-08-12T23:22:40.189Z,83.26
2022-08-12T23:25:21.024Z,82.87
2022-08-12T23:28:29.239Z,82.93
2022-08-12T23:31:04.234Z,82.97
2022-08-12T23:34:00.116Z,83.10
2022-08-12T23:36:38.997Z,83.63
2022-08-12T23:40:13.053Z,83.94
2022-08-12T23:42:17.101Z,84.17
2022-08-12T23:44:48.579Z,84.41
2022-08-12T23:47:22.785Z,84.53
2022-08-12T23:49:58.378Z,84.45
2022-08-12T23:52:34.666Z,85.63
2022-08-12T23:55:04.790Z,86.83
2022-08-12T23:58:21.222Z,86.86
